createdAt,value
2023-04-02T00:00:02.000Z,4.0
2023-04-02T00:00:17.000Z,4.0
2023-04-02T00:00:32.000Z,4.0
2023-04-02T00:00:47.000Z,3.9000000953674316
2023-04-02T00:01:02.000Z,4.0
2023-04-02T00:01:17.000Z,4.099999904632568
2023-04-02T00:01:32.000Z,4.099999904632568
2023-04-02T00:01:47.000Z,4.199999809265137
2023-04-02T00:02:02.000Z,4.099999904632568
2023-04-02T00:02:17.000Z,4.0
2023-04-02T00:02:32.000Z,4.0
2023-04-02T00:02:47.000Z,4.0
2023-04-02T00:03:02.000Z,3.9000000953674316
2023-04-02T00:03:17.000Z,3.9000000953674316
2023-04-02T00:03:32.000Z,3.9000000953674316
2023-04-02T00:03:47.000Z,3.9000000953674316
2023-04-02T00:04:02.000Z,3.9000000953674316
2023-04-02T00:04:17.000Z,4.0
2023-04-02T00:04:32.000Z,3.9000000953674316
2023-04-02T00:04:47.000Z,4.0
2023-04-02T00:05:03.000Z,3.9000000953674316
2023-04-02T00:05:18.000Z,3.9000000953674316
2023-04-02T00:05:33.000Z,3.9000000953674316
2023-04-02T00:05:48.000Z,4.0
2023-04-02T00:06:03.000Z,4.0
2023-04-02T00:06:17.000Z,3.9000000953674316
2023-04-02T00:06:32.000Z,3.9000000953674316
2023-04-02T00:06:47.000Z,4.0
2023-04-02T00:07:02.000Z,4.0
2023-04-02T00:07:17.000Z,4.0
2023-04-02T00:07:32.000Z,4.0
2023-04-02T00:07:47.000Z,3.9000000953674316
2023-04-02T00:08:02.000Z,4.0
2023-04-02T00:08:17.000Z,3.9000000953674316
2023-04-02T00:08:32.000Z,3.9000000953674316
2023-04-02T00:08:47.000Z,3.9000000953674316
2023-04-02T00:09:02.000Z,3.9000000953674316
2023-04-02T00:09:17.000Z,3.799999952316284
2023-04-02T00:09:32.000Z,3.9000000953674316
2023-04-02T00:09:47.000Z,3.799999952316284
2023-04-02T00:10:02.000Z,3.799999952316284
2023-04-02T00:10:17.000Z,3.799999952316284
2023-04-02T00:10:32.000Z,3.700000047683716
2023-04-02T00:10:47.000Z,3.700000047683716
2023-04-02T00:11:02.000Z,3.700000047683716
2023-04-02T00:11:17.000Z,3.799999952316284
2023-04-02T00:11:32.000Z,3.700000047683716
2023-04-02T00:11:47.000Z,3.700000047683716
2023-04-02T00:12:02.000Z,3.700000047683716
2023-04-02T00:12:18.000Z,3.700000047683716
2023-04-02T00:12:33.000Z,3.700000047683716
2023-04-02T00:12:48.000Z,3.700000047683716
2023-04-02T00:13:03.000Z,3.799999952316284
2023-04-02T00:13:18.000Z,3.799999952316284
2023-04-02T00:13:33.000Z,3.799999952316284
2023-04-02T00:13:47.000Z,3.799999952316284
2023-04-02T00:14:02.000Z,3.799999952316284
2023-04-02T00:14:17.000Z,3.799999952316284
2023-04-02T00:14:32.000Z,3.799999952316284
2023-04-02T00:14:47.000Z,3.700000047683716
2023-04-02T00:15:02.000Z,3.799999952316284
2023-04-02T00:15:17.000Z,3.799999952316284
2023-04-02T00:15:32.000Z,3.799999952316284
2023-04-02T00:15:47.000Z,3.799999952316284
2023-04-02T00:16:02.000Z,3.799999952316284
2023-04-02T00:16:17.000Z,3.799999952316284
2023-04-02T00:16:32.000Z,3.799999952316284
2023-04-02T00:16:47.000Z,3.799999952316284
2023-04-02T00:17:02.000Z,3.799999952316284
2023-04-02T00:17:17.000Z,3.799999952316284
2023-04-02T00:17:32.000Z,3.799999952316284
2023-04-02T00:17:47.000Z,3.799999952316284
2023-04-02T00:18:02.000Z,3.799999952316284
2023-04-02T00:18:17.000Z,3.9000000953674316
2023-04-02T00:18:32.000Z,3.799999952316284
2023-04-02T00:18:47.000Z,3.799999952316284
2023-04-02T00:19:02.000Z,3.799999952316284
2023-04-02T00:19:17.000Z,3.700000047683716
2023-04-02T00:19:32.000Z,3.700000047683716
2023-04-02T00:19:48.000Z,3.799999952316284
2023-04-02T00:20:03.000Z,3.799999952316284
2023-04-02T00:20:18.000Z,3.799999952316284
2023-04-02T00:20:33.000Z,3.799999952316284
2023-04-02T00:20:48.000Z,3.799999952316284
2023-04-02T00:21:02.000Z,3.700000047683716
2023-04-02T00:21:17.000Z,3.700000047683716
2023-04-02T00:21:32.000Z,3.700000047683716
2023-04-02T00:21:47.000Z,3.799999952316284
2023-04-02T00:22:02.000Z,3.799999952316284
2023-04-02T00:22:17.000Z,3.700000047683716
2023-04-02T00:22:32.000Z,3.700000047683716
2023-04-02T00:22:47.000Z,3.799999952316284
2023-04-02T00:23:02.000Z,3.799999952316284
2023-04-02T00:23:17.000Z,3.799999952316284
2023-04-02T00:23:32.000Z,3.799999952316284
2023-04-02T00:23:47.000Z,3.799999952316284
2023-04-02T00:24:02.000Z,3.700000047683716
2023-04-02T00:24:17.000Z,3.799999952316284
2023-04-02T00:24:32.000Z,3.700000047683716
2023-04-02T00:24:47.000Z,3.799999952316284
2023-04-02T00:25:02.000Z,3.799999952316284
2023-04-02T00:25:17.000Z,3.799999952316284
2023-04-02T00:25:32.000Z,3.799999952316284
2023-04-02T00:25:47.000Z,3.799999952316284
2023-04-02T00:26:02.000Z,3.700000047683716
2023-04-02T00:26:17.000Z,3.700000047683716
2023-04-02T00:26:32.000Z,3.799999952316284
2023-04-02T00:26:47.000Z,3.799999952316284
2023-04-02T00:27:03.000Z,3.799999952316284
2023-04-02T00:27:18.000Z,3.700000047683716
2023-04-02T00:27:33.000Z,3.700000047683716
2023-04-02T00:27:48.000Z,3.799999952316284
2023-04-02T00:28:03.000Z,3.799999952316284
2023-04-02T00:28:17.000Z,3.799999952316284
2023-04-02T00:28:32.000Z,3.799999952316284
2023-04-02T00:28:47.000Z,3.799999952316284
2023-04-02T00:29:02.000Z,3.799999952316284
2023-04-02T00:29:17.000Z,3.700000047683716
2023-04-02T00:29:32.000Z,3.700000047683716
2023-04-02T00:29:47.000Z,3.700000047683716
2023-04-02T00:30:02.000Z,3.700000047683716
2023-04-02T00:30:17.000Z,3.700000047683716
2023-04-02T00:30:32.000Z,3.700000047683716
2023-04-02T00:30:47.000Z,3.700000047683716
2023-04-02T00:31:02.000Z,3.700000047683716
2023-04-02T00:31:17.000Z,3.700000047683716
2023-04-02T00:31:32.000Z,3.799999952316284
2023-04-02T00:31:47.000Z,3.799999952316284
2023-04-02T00:32:02.000Z,3.799999952316284
2023-04-02T00:32:17.000Z,3.799999952316284
2023-04-02T00:32:32.000Z,3.799999952316284
2023-04-02T00:32:47.000Z,3.799999952316284
2023-04-02T00:33:02.000Z,3.799999952316284
2023-04-02T00:33:17.000Z,3.799999952316284
2023-04-02T00:33:32.000Z,3.799999952316284
2023-04-02T00:33:47.000Z,3.799999952316284
2023-04-02T00:34:02.000Z,3.700000047683716
2023-04-02T00:34:18.000Z,3.700000047683716
2023-04-02T00:34:33.000Z,3.799999952316284
2023-04-02T00:34:48.000Z,3.799999952316284
2023-04-02T00:35:03.000Z,3.799999952316284
2023-04-02T00:35:18.000Z,3.799999952316284
2023-04-02T00:35:33.000Z,3.700000047683716
2023-04-02T00:35:47.000Z,3.799999952316284
2023-04-02T00:36:02.000Z,3.799999952316284
2023-04-02T00:36:17.000Z,3.799999952316284
2023-04-02T00:36:32.000Z,3.799999952316284
2023-04-02T00:36:47.000Z,3.799999952316284
2023-04-02T00:37:02.000Z,3.799999952316284
2023-04-02T00:37:17.000Z,3.799999952316284
2023-04-02T00:37:32.000Z,3.799999952316284
2023-04-02T00:37:47.000Z,3.799999952316284
2023-04-02T00:38:02.000Z,3.700000047683716
2023-04-02T00:38:17.000Z,3.700000047683716
2023-04-02T00:38:32.000Z,3.700000047683716
2023-04-02T00:38:47.000Z,3.700000047683716
2023-04-02T00:39:02.000Z,3.700000047683716
2023-04-02T00:39:17.000Z,3.700000047683716
2023-04-02T00:39:32.000Z,3.700000047683716
2023-04-02T00:39:47.000Z,3.799999952316284
2023-04-02T00:40:02.000Z,3.799999952316284
2023-04-02T00:40:17.000Z,3.700000047683716
2023-04-02T00:40:32.000Z,3.700000047683716
2023-04-02T00:40:47.000Z,3.700000047683716
2023-04-02T00:41:02.000Z,3.700000047683716
2023-04-02T00:41:17.000Z,3.700000047683716
2023-04-02T00:41:32.000Z,3.700000047683716
2023-04-02T00:41:48.000Z,3.700000047683716
2023-04-02T00:42:03.000Z,3.700000047683716
2023-04-02T00:42:18.000Z,3.700000047683716
2023-04-02T00:42:33.000Z,3.700000047683716
2023-04-02T00:42:48.000Z,3.700000047683716
2023-04-02T00:43:02.000Z,3.700000047683716
2023-04-02T00:43:17.000Z,3.799999952316284
2023-04-02T00:43:32.000Z,3.700000047683716
2023-04-02T00:43:47.000Z,3.700000047683716
2023-04-02T00:44:02.000Z,3.799999952316284
2023-04-02T00:44:17.000Z,3.799999952316284
2023-04-02T00:44:32.000Z,3.799999952316284
2023-04-02T00:44:47.000Z,3.799999952316284
2023-04-02T00:45:02.000Z,3.700000047683716
2023-04-02T00:45:17.000Z,3.799999952316284
2023-04-02T00:45:32.000Z,3.799999952316284
2023-04-02T00:45:47.000Z,3.9000000953674316
2023-04-02T00:46:02.000Z,3.799999952316284
2023-04-02T00:46:17.000Z,3.700000047683716
2023-04-02T00:46:32.000Z,3.700000047683716
2023-04-02T00:46:47.000Z,3.700000047683716
2023-04-02T00:47:02.000Z,3.799999952316284
2023-04-02T00:47:17.000Z,3.799999952316284
2023-04-02T00:47:32.000Z,3.799999952316284
2023-04-02T00:47:47.000Z,3.799999952316284
2023-04-02T00:48:02.000Z,3.700000047683716
2023-04-02T00:48:17.000Z,3.700000047683716
2023-04-02T00:48:32.000Z,3.5999999046325684
2023-04-02T00:48:47.000Z,3.700000047683716
2023-04-02T00:49:03.000Z,3.700000047683716
2023-04-02T00:49:18.000Z,3.700000047683716
2023-04-02T00:49:33.000Z,3.700000047683716
2023-04-02T00:49:48.000Z,3.5999999046325684
2023-04-02T00:50:03.000Z,3.5999999046325684
2023-04-02T00:50:17.000Z,3.5
2023-04-02T00:50:32.000Z,3.5
2023-04-02T00:50:47.000Z,3.5
2023-04-02T00:51:02.000Z,3.4000000953674316
2023-04-02T00:51:17.000Z,3.5999999046325684
2023-04-02T00:51:32.000Z,3.5
2023-04-02T00:51:47.000Z,3.5
2023-04-02T00:52:02.000Z,3.5
2023-04-02T00:52:17.000Z,3.5
2023-04-02T00:52:32.000Z,3.5
2023-04-02T00:52:47.000Z,3.5
2023-04-02T00:53:02.000Z,3.5
2023-04-02T00:53:17.000Z,3.5
2023-04-02T00:53:32.000Z,3.4000000953674316
2023-04-02T00:53:47.000Z,3.4000000953674316
2023-04-02T00:54:02.000Z,3.4000000953674316
2023-04-02T00:54:17.000Z,3.4000000953674316
2023-04-02T00:54:32.000Z,3.5
2023-04-02T00:54:47.000Z,3.5
2023-04-02T00:55:02.000Z,3.5
2023-04-02T00:55:17.000Z,3.5
2023-04-02T00:55:32.000Z,3.5
2023-04-02T00:55:47.000Z,3.5
2023-04-02T00:56:02.000Z,3.4000000953674316
2023-04-02T00:56:18.000Z,3.4000000953674316
2023-04-02T00:56:33.000Z,3.4000000953674316
2023-04-02T00:56:48.000Z,3.4000000953674316
2023-04-02T00:57:03.000Z,3.4000000953674316
2023-04-02T00:57:18.000Z,3.5
2023-04-02T00:57:33.000Z,3.5
2023-04-02T00:57:47.000Z,3.5
2023-04-02T00:58:02.000Z,3.5
2023-04-02T00:58:17.000Z,3.5999999046325684
2023-04-02T00:58:32.000Z,3.5
2023-04-02T00:58:47.000Z,3.5
2023-04-02T00:59:02.000Z,3.5
2023-04-02T00:59:17.000Z,3.5
2023-04-02T00:59:32.000Z,3.4000000953674316
2023-04-02T00:59:47.000Z,3.4000000953674316
2023-04-02T01:00:02.000Z,3.4000000953674316
2023-04-02T01:00:17.000Z,3.4000000953674316
2023-04-02T01:00:32.000Z,3.4000000953674316
2023-04-02T01:00:47.000Z,3.4000000953674316
2023-04-02T01:01:02.000Z,3.4000000953674316
2023-04-02T01:01:17.000Z,3.4000000953674316
2023-04-02T01:01:32.000Z,3.4000000953674316
2023-04-02T01:01:47.000Z,3.4000000953674316
2023-04-02T01:02:02.000Z,3.4000000953674316
2023-04-02T01:02:17.000Z,3.299999952316284
2023-04-02T01:02:32.000Z,3.299999952316284
2023-04-02T01:02:47.000Z,3.299999952316284
2023-04-02T01:03:02.000Z,3.299999952316284
2023-04-02T01:03:17.000Z,3.299999952316284
2023-04-02T01:03:32.000Z,3.299999952316284
2023-04-02T01:03:48.000Z,3.299999952316284
2023-04-02T01:04:03.000Z,3.299999952316284
2023-04-02T01:04:18.000Z,3.4000000953674316
2023-04-02T01:04:33.000Z,3.4000000953674316
2023-04-02T01:04:48.000Z,3.299999952316284
2023-04-02T01:05:03.000Z,3.299999952316284
2023-04-02T01:05:17.000Z,3.299999952316284
2023-04-02T01:05:32.000Z,3.299999952316284
2023-04-02T01:05:47.000Z,3.299999952316284
2023-04-02T01:06:02.000Z,3.299999952316284
2023-04-02T01:06:17.000Z,3.299999952316284
2023-04-02T01:06:32.000Z,3.299999952316284
2023-04-02T01:06:47.000Z,3.299999952316284
2023-04-02T01:07:02.000Z,3.299999952316284
2023-04-02T01:07:17.000Z,3.299999952316284
2023-04-02T01:07:32.000Z,3.200000047683716
2023-04-02T01:07:47.000Z,3.299999952316284
2023-04-02T01:08:02.000Z,3.200000047683716
2023-04-02T01:08:17.000Z,3.299999952316284
2023-04-02T01:08:32.000Z,3.200000047683716
2023-04-02T01:08:47.000Z,3.200000047683716
2023-04-02T01:09:02.000Z,3.200000047683716
2023-04-02T01:09:17.000Z,3.200000047683716
2023-04-02T01:09:32.000Z,3.200000047683716
2023-04-02T01:09:47.000Z,3.200000047683716
2023-04-02T01:10:02.000Z,3.299999952316284
2023-04-02T01:10:17.000Z,3.200000047683716
2023-04-02T01:10:32.000Z,3.200000047683716
2023-04-02T01:10:47.000Z,3.200000047683716
2023-04-02T01:11:02.000Z,3.200000047683716
2023-04-02T01:11:18.000Z,3.200000047683716
2023-04-02T01:11:33.000Z,3.200000047683716
2023-04-02T01:11:48.000Z,3.200000047683716
2023-04-02T01:12:03.000Z,3.200000047683716
2023-04-02T01:12:18.000Z,3.200000047683716
2023-04-02T01:12:33.000Z,3.200000047683716
2023-04-02T01:12:47.000Z,3.200000047683716
2023-04-02T01:13:02.000Z,3.200000047683716
2023-04-02T01:13:17.000Z,3.200000047683716
2023-04-02T01:13:32.000Z,3.299999952316284
2023-04-02T01:13:47.000Z,3.299999952316284
2023-04-02T01:14:02.000Z,3.299999952316284
2023-04-02T01:14:17.000Z,3.4000000953674316
2023-04-02T01:14:32.000Z,3.200000047683716
2023-04-02T01:14:47.000Z,3.200000047683716
2023-04-02T01:15:02.000Z,3.200000047683716
2023-04-02T01:15:17.000Z,3.200000047683716
2023-04-02T01:15:32.000Z,3.200000047683716
2023-04-02T01:15:47.000Z,3.200000047683716
2023-04-02T01:16:02.000Z,3.299999952316284
2023-04-02T01:16:17.000Z,3.299999952316284
2023-04-02T01:16:32.000Z,3.299999952316284
2023-04-02T01:16:47.000Z,3.200000047683716
2023-04-02T01:17:02.000Z,3.200000047683716
2023-04-02T01:17:17.000Z,3.200000047683716
2023-04-02T01:17:32.000Z,3.200000047683716
2023-04-02T01:17:47.000Z,3.200000047683716
2023-04-02T01:18:02.000Z,3.200000047683716
2023-04-02T01:18:17.000Z,3.0999999046325684
2023-04-02T01:18:32.000Z,3.0999999046325684
2023-04-02T01:18:48.000Z,3.0999999046325684
2023-04-02T01:19:03.000Z,3.0999999046325684
2023-04-02T01:19:18.000Z,3.0999999046325684
2023-04-02T01:19:33.000Z,3.0999999046325684
2023-04-02T01:19:48.000Z,3.0999999046325684
2023-04-02T01:20:02.000Z,3.0999999046325684
2023-04-02T01:20:17.000Z,3.0999999046325684
2023-04-02T01:20:32.000Z,3.0999999046325684
2023-04-02T01:20:47.000Z,3.200000047683716
2023-04-02T01:21:02.000Z,3.0999999046325684
2023-04-02T01:21:17.000Z,3.200000047683716
2023-04-02T01:21:32.000Z,3.200000047683716
2023-04-02T01:21:47.000Z,3.299999952316284
2023-04-02T01:22:02.000Z,3.200000047683716
2023-04-02T01:22:17.000Z,3.200000047683716
2023-04-02T01:22:32.000Z,3.0999999046325684
2023-04-02T01:22:47.000Z,3.0999999046325684
2023-04-02T01:23:02.000Z,3.0
2023-04-02T01:23:17.000Z,3.0
2023-04-02T01:23:32.000Z,2.9000000953674316
2023-04-02T01:23:47.000Z,2.9000000953674316
2023-04-02T01:24:02.000Z,2.9000000953674316
2023-04-02T01:24:17.000Z,2.9000000953674316
2023-04-02T01:24:32.000Z,2.9000000953674316
2023-04-02T01:24:47.000Z,2.9000000953674316
2023-04-02T01:25:02.000Z,2.9000000953674316
2023-04-02T01:25:17.000Z,3.0
2023-04-02T01:25:32.000Z,2.9000000953674316
2023-04-02T01:25:47.000Z,2.9000000953674316
2023-04-02T01:26:02.000Z,2.9000000953674316
2023-04-02T01:26:18.000Z,2.9000000953674316
2023-04-02T01:26:33.000Z,2.9000000953674316
2023-04-02T01:26:48.000Z,2.9000000953674316
2023-04-02T01:27:03.000Z,2.9000000953674316
2023-04-02T01:27:18.000Z,2.9000000953674316
2023-04-02T01:27:32.000Z,2.9000000953674316
2023-04-02T01:27:47.000Z,2.9000000953674316
2023-04-02T01:28:02.000Z,2.9000000953674316
2023-04-02T01:28:17.000Z,3.0
2023-04-02T01:28:32.000Z,2.9000000953674316
2023-04-02T01:28:47.000Z,2.9000000953674316
2023-04-02T01:29:02.000Z,2.9000000953674316
2023-04-02T01:29:17.000Z,2.9000000953674316
2023-04-02T01:29:32.000Z,2.9000000953674316
2023-04-02T01:29:47.000Z,2.9000000953674316
2023-04-02T01:30:02.000Z,2.9000000953674316
2023-04-02T01:30:17.000Z,2.9000000953674316
2023-04-02T01:30:32.000Z,2.9000000953674316
2023-04-02T01:30:47.000Z,2.9000000953674316
2023-04-02T01:31:02.000Z,2.9000000953674316
2023-04-02T01:31:17.000Z,2.9000000953674316
2023-04-02T01:31:32.000Z,2.9000000953674316
2023-04-02T01:31:47.000Z,2.9000000953674316
2023-04-02T01:32:02.000Z,2.9000000953674316
2023-04-02T01:32:17.000Z,2.9000000953674316
2023-04-02T01:32:32.000Z,2.799999952316284
2023-04-02T01:32:47.000Z,2.799999952316284
2023-04-02T01:33:02.000Z,2.799999952316284
2023-04-02T01:33:17.000Z,2.799999952316284
2023-04-02T01:33:33.000Z,2.799999952316284
2023-04-02T01:33:48.000Z,2.799999952316284
2023-04-02T01:34:03.000Z,2.9000000953674316
2023-04-02T01:34:18.000Z,2.799999952316284
2023-04-02T01:34:33.000Z,2.799999952316284
2023-04-02T01:34:48.000Z,2.799999952316284
2023-04-02T01:35:02.000Z,2.799999952316284
2023-04-02T01:35:17.000Z,2.799999952316284
2023-04-02T01:35:32.000Z,2.799999952316284
2023-04-02T01:35:47.000Z,2.799999952316284
2023-04-02T01:36:02.000Z,2.799999952316284
2023-04-02T01:36:17.000Z,2.799999952316284
2023-04-02T01:36:32.000Z,2.799999952316284
2023-04-02T01:36:47.000Z,2.799999952316284
2023-04-02T01:37:02.000Z,2.9000000953674316
2023-04-02T01:37:17.000Z,2.9000000953674316
2023-04-02T01:37:32.000Z,2.9000000953674316
2023-04-02T01:37:47.000Z,2.799999952316284
2023-04-02T01:38:02.000Z,2.799999952316284
2023-04-02T01:38:17.000Z,2.9000000953674316
2023-04-02T01:38:32.000Z,2.9000000953674316
2023-04-02T01:38:47.000Z,2.9000000953674316
2023-04-02T01:39:02.000Z,2.799999952316284
2023-04-02T01:39:17.000Z,2.9000000953674316
2023-04-02T01:39:32.000Z,2.9000000953674316
2023-04-02T01:39:47.000Z,2.9000000953674316
2023-04-02T01:40:02.000Z,2.9000000953674316
2023-04-02T01:40:17.000Z,2.799999952316284
2023-04-02T01:40:32.000Z,2.799999952316284
2023-04-02T01:40:47.000Z,2.799999952316284
2023-04-02T01:41:03.000Z,2.799999952316284
2023-04-02T01:41:18.000Z,2.799999952316284
2023-04-02T01:41:33.000Z,2.9000000953674316
2023-04-02T01:41:48.000Z,2.9000000953674316
2023-04-02T01:42:03.000Z,2.9000000953674316
2023-04-02T01:42:18.000Z,3.0
2023-04-02T01:42:32.000Z,3.0
2023-04-02T01:42:47.000Z,2.9000000953674316
2023-04-02T01:43:02.000Z,2.9000000953674316
2023-04-02T01:43:17.000Z,2.799999952316284
2023-04-02T01:43:32.000Z,2.799999952316284
2023-04-02T01:43:47.000Z,2.700000047683716
2023-04-02T01:44:02.000Z,2.700000047683716
2023-04-02T01:44:17.000Z,2.700000047683716
2023-04-02T01:44:32.000Z,2.799999952316284
2023-04-02T01:44:47.000Z,2.799999952316284
2023-04-02T01:45:02.000Z,2.799999952316284
2023-04-02T01:45:17.000Z,2.799999952316284
2023-04-02T01:45:32.000Z,2.9000000953674316
2023-04-02T01:45:47.000Z,2.799999952316284
2023-04-02T01:46:02.000Z,2.799999952316284
2023-04-02T01:46:17.000Z,2.799999952316284
2023-04-02T01:46:32.000Z,2.799999952316284
2023-04-02T01:46:47.000Z,2.799999952316284
2023-04-02T01:47:02.000Z,2.799999952316284
2023-04-02T01:47:17.000Z,2.9000000953674316
2023-04-02T01:47:32.000Z,2.9000000953674316
2023-04-02T01:47:47.000Z,3.0
2023-04-02T01:48:02.000Z,3.0
2023-04-02T01:48:17.000Z,2.9000000953674316
2023-04-02T01:48:33.000Z,2.9000000953674316
2023-04-02T01:48:48.000Z,2.9000000953674316
2023-04-02T01:49:03.000Z,2.9000000953674316
2023-04-02T01:49:18.000Z,2.9000000953674316
2023-04-02T01:49:33.000Z,2.799999952316284
2023-04-02T01:49:47.000Z,2.9000000953674316
2023-04-02T01:50:02.000Z,2.799999952316284
2023-04-02T01:50:17.000Z,2.799999952316284
2023-04-02T01:50:32.000Z,2.799999952316284
2023-04-02T01:50:47.000Z,2.799999952316284
2023-04-02T01:51:02.000Z,2.9000000953674316
2023-04-02T01:51:17.000Z,2.9000000953674316
2023-04-02T01:51:32.000Z,2.799999952316284
2023-04-02T01:51:47.000Z,2.799999952316284
2023-04-02T01:52:02.000Z,2.799999952316284
2023-04-02T01:52:17.000Z,2.799999952316284
2023-04-02T01:52:32.000Z,2.799999952316284
2023-04-02T01:52:47.000Z,2.799999952316284
2023-04-02T01:53:02.000Z,2.799999952316284
2023-04-02T01:53:17.000Z,2.799999952316284
2023-04-02T01:53:32.000Z,2.9000000953674316
2023-04-02T01:53:47.000Z,2.799999952316284
2023-04-02T01:54:02.000Z,2.799999952316284
2023-04-02T01:54:17.000Z,2.799999952316284
2023-04-02T01:54:32.000Z,2.799999952316284
2023-04-02T01:54:47.000Z,2.799999952316284
2023-04-02T01:55:02.000Z,2.799999952316284
2023-04-02T01:55:17.000Z,2.799999952316284
2023-04-02T01:55:32.000Z,2.9000000953674316
2023-04-02T01:55:47.000Z,2.9000000953674316
2023-04-02T01:56:03.000Z,2.9000000953674316
2023-04-02T01:56:18.000Z,2.9000000953674316
2023-04-02T01:56:33.000Z,3.0
2023-04-02T01:56:48.000Z,2.9000000953674316
2023-04-02T01:57:03.000Z,2.9000000953674316
2023-04-02T01:57:17.000Z,2.9000000953674316
2023-04-02T01:57:32.000Z,2.9000000953674316
2023-04-02T01:57:47.000Z,2.9000000953674316
2023-04-02T01:58:02.000Z,2.9000000953674316
2023-04-02T01:58:17.000Z,2.799999952316284
2023-04-02T01:58:32.000Z,3.0
2023-04-02T01:58:47.000Z,2.9000000953674316
2023-04-02T01:59:02.000Z,2.9000000953674316
2023-04-02T01:59:17.000Z,2.9000000953674316
2023-04-02T01:59:32.000Z,2.9000000953674316
2023-04-02T01:59:47.000Z,2.9000000953674316
2023-04-02T02:00:02.000Z,2.9000000953674316
2023-04-02T02:00:17.000Z,2.9000000953674316
2023-04-02T02:00:32.000Z,3.0
2023-04-02T02:00:47.000Z,2.9000000953674316
2023-04-02T02:01:02.000Z,3.0
2023-04-02T02:01:17.000Z,3.0999999046325684
2023-04-02T02:01:32.000Z,2.9000000953674316
2023-04-02T02:01:47.000Z,2.9000000953674316
2023-04-02T02:02:02.000Z,2.799999952316284
2023-04-02T02:02:17.000Z,2.799999952316284
2023-04-02T02:02:32.000Z,2.799999952316284
2023-04-02T02:02:47.000Z,2.9000000953674316
2023-04-02T02:03:02.000Z,2.799999952316284
2023-04-02T02:03:18.000Z,2.799999952316284
2023-04-02T02:03:33.000Z,2.799999952316284
2023-04-02T02:03:48.000Z,2.700000047683716
2023-04-02T02:04:03.000Z,2.700000047683716
2023-04-02T02:04:18.000Z,2.799999952316284
2023-04-02T02:04:33.000Z,2.799999952316284
2023-04-02T02:04:47.000Z,2.700000047683716
2023-04-02T02:05:02.000Z,2.700000047683716
2023-04-02T02:05:17.000Z,2.799999952316284
2023-04-02T02:05:32.000Z,2.799999952316284
2023-04-02T02:05:47.000Z,2.9000000953674316
2023-04-02T02:06:02.000Z,2.9000000953674316
2023-04-02T02:06:17.000Z,2.9000000953674316
2023-04-02T02:06:32.000Z,2.9000000953674316
2023-04-02T02:06:47.000Z,3.0
2023-04-02T02:07:02.000Z,2.799999952316284
2023-04-02T02:07:17.000Z,2.799999952316284
2023-04-02T02:07:32.000Z,2.799999952316284
2023-04-02T02:07:47.000Z,2.799999952316284
2023-04-02T02:08:02.000Z,2.799999952316284
2023-04-02T02:08:17.000Z,2.700000047683716
2023-04-02T02:08:32.000Z,2.799999952316284
2023-04-02T02:08:47.000Z,2.700000047683716
2023-04-02T02:09:02.000Z,2.700000047683716
2023-04-02T02:09:17.000Z,2.700000047683716
2023-04-02T02:09:32.000Z,2.700000047683716
2023-04-02T02:09:47.000Z,2.700000047683716
2023-04-02T02:10:02.000Z,2.700000047683716
2023-04-02T02:10:17.000Z,2.700000047683716
2023-04-02T02:10:32.000Z,2.700000047683716
2023-04-02T02:10:48.000Z,2.799999952316284
2023-04-02T02:11:03.000Z,2.799999952316284
2023-04-02T02:11:18.000Z,2.9000000953674316
2023-04-02T02:11:33.000Z,2.9000000953674316
2023-04-02T02:11:48.000Z,2.700000047683716
2023-04-02T02:12:02.000Z,2.700000047683716
2023-04-02T02:12:17.000Z,2.700000047683716
2023-04-02T02:12:32.000Z,2.700000047683716
2023-04-02T02:12:47.000Z,2.700000047683716
2023-04-02T02:13:02.000Z,2.700000047683716
2023-04-02T02:13:17.000Z,2.700000047683716
2023-04-02T02:13:32.000Z,2.799999952316284
2023-04-02T02:13:47.000Z,2.799999952316284
2023-04-02T02:14:02.000Z,2.799999952316284
2023-04-02T02:14:17.000Z,2.799999952316284
2023-04-02T02:14:32.000Z,2.799999952316284
2023-04-02T02:14:47.000Z,2.799999952316284
2023-04-02T02:15:02.000Z,2.799999952316284
2023-04-02T02:15:17.000Z,2.700000047683716
2023-04-02T02:15:32.000Z,2.799999952316284
2023-04-02T02:15:47.000Z,2.799999952316284
2023-04-02T02:16:02.000Z,2.700000047683716
2023-04-02T02:16:17.000Z,2.700000047683716
2023-04-02T02:16:32.000Z,2.700000047683716
2023-04-02T02:16:47.000Z,2.700000047683716
2023-04-02T02:17:02.000Z,2.799999952316284
2023-04-02T02:17:17.000Z,2.799999952316284
2023-04-02T02:17:32.000Z,2.799999952316284
2023-04-02T02:17:47.000Z,2.799999952316284
2023-04-02T02:18:03.000Z,2.700000047683716
2023-04-02T02:18:18.000Z,2.700000047683716
2023-04-02T02:18:33.000Z,2.700000047683716
2023-04-02T02:18:48.000Z,2.700000047683716
2023-04-02T02:19:03.000Z,2.700000047683716
2023-04-02T02:19:17.000Z,2.5999999046325684
2023-04-02T02:19:32.000Z,2.5999999046325684
2023-04-02T02:19:47.000Z,2.5999999046325684
2023-04-02T02:20:02.000Z,2.5999999046325684
2023-04-02T02:20:17.000Z,2.700000047683716
2023-04-02T02:20:32.000Z,2.5999999046325684
2023-04-02T02:20:47.000Z,2.5999999046325684
2023-04-02T02:21:02.000Z,2.5
2023-04-02T02:21:17.000Z,2.5999999046325684
2023-04-02T02:21:32.000Z,2.5999999046325684
2023-04-02T02:21:47.000Z,2.5999999046325684
2023-04-02T02:22:02.000Z,2.5999999046325684
2023-04-02T02:22:17.000Z,2.5999999046325684
2023-04-02T02:22:32.000Z,2.5999999046325684